Aeroporto :
LOGIN :

Iscrizione | Disclaimer

   EN    FR    IT 

 










Sommario :    VFR   VFR Marginale   IFR   IFR Intensivo   IFR Molto Intensivo
Visibilità : 
Base nubi : 
>= 8 km
>= 3000ft
5 / 8 km
1000 / 3000 ft
1500m / 5 km
500 / 1000 ft
800 / 1500m
200 / 500 ft
< 800m
< 200 ft
Simboli :   Temporali  Nebbia  Neve Forte  Precipitazioni Forti  Vento > 20 kt
SIGMETs :   Varie  Temporali  Ghiacco  Turbolenza  Onda orograficha  Ceneri Vulcaniche






- Altitudine del aeroporto : 106 ft
- Codice IATA : XDA


LFBY - Dax Seyresse

ULTIMO METAR :
  • 122100Z AUTO VRB02KT 3200 // ////// 11/10 Q1008

METARs OBSOLETI :
  • 122030Z AUTO 21003KT 3000 // ////// 10/10 Q1008
  • 122000Z AUTO 19003KT 6000 // FEW044/// ///TCU 10/09 Q1008
  • 121930Z AUTO 21006KT 8000 // ////// 10/09 Q1008
  • 121900Z AUTO 21007KT 7000 // FEW016 11/10 Q1008
  • 121830Z AUTO 20006KT 7000 // FEW006 11/10 Q1008

Previsioni scadute.



MetMap, La meteo Aeronautica in un colpo d'occhio ! - Copyright ORBIFLY Dicembre 2007 - Disclaimer

ORBIFLY MET'MAP TEAM :

Programmazione e sviluppo : Alexandra Zaïnal
Concezione e sviluppo : Baudouin d'Aumeries
Co-Programmazione e sviluppo : Marc-Olivier Méhu
Supporto tecnico e logistico : Manuel Goepfert
Aiuto per la traduzione : Arnaldo La Scala

Contatto : metmap@orbifly.com




FONTI E CREDITI :

   NOAA